^^
Datos históricos de la estación: Murcia-Puente Tocinos
Diario Informe para Enero 22, 2019 Unidades:  Métrico    Ingés   Ambas
Diario Semanal Mensual Anual
  Máxima: Mínima: Promedio:
Temperatura: 19.4 °C 11.7 °C 15.1 °C
Punto de rocio: 12 °C 8.9 °C 10.2 °C
Humedad: 91% 51.7% 74%
Velocidad viento: 16.4km/h 0km/h 9.5km/h
Racha viento: 32.2km/h - -
Viento- - SO
Presión: 1003.8 hPa 998.9 hPa -
Precipitación: 1.6 mm    
 
 
Tabla de datos para Enero 22, 2019
Hora Temperatura Punto de rocio Presión Viento Velocidad viento Racha viento Humedad Intensidad lluvia(por hora) Nubes
00:04 12.7 °C 10.6 °C 1003.8 hPa SO 13 km/h 20.9 km/h 87% 1.0 mm
00:09 12.7 °C 10.6 °C 1003.7 hPa SSO 12.9 km/h 20.9 km/h 87% 1.0 mm
00:14 12.7 °C 10.6 °C 1003.7 hPa SSO 12.2 km/h 22.5 km/h 87% 1.0 mm
00:19 12.7 °C 10.6 °C 1003.7 hPa SO 12.8 km/h 24.1 km/h 87% 0.5 mm
00:24 12.7 °C 10.6 °C 1003.4 hPa SO 14 km/h 24.1 km/h 87% 0.5 mm
00:29 12.7 °C 10.6 °C 1003.4 hPa SO 13.5 km/h 20.9 km/h 87% 0.5 mm
00:34 12.7 °C 10.6 °C 1003.7 hPa SO 12.2 km/h 19.3 km/h 87% 0.5 mm
00:39 12.7 °C 10.6 °C 1003.7 hPa SO 11.5 km/h 17.2 km/h 87% 0.5 mm
00:44 12.7 °C 10.7 °C 1003.7 hPa SO 10 km/h 17.7 km/h 87.5% 0.5 mm
00:49 12.6 °C 10.7 °C 1003.7 hPa SO 10.1 km/h 16.7 km/h 88% 0.5 mm
00:54 12.6 °C 10.7 °C 1003.4 hPa SO 10.3 km/h 16.7 km/h 88% 0.5 mm
00:59 12.6 °C 10.7 °C 1003.4 hPa SO 10.2 km/h 19 km/h 88% 0.5 mm
01:04 12.6 °C 10.7 °C 1003.5 hPa SSO 10 km/h 19.3 km/h 88% 0.5 mm
01:09 12.6 °C 10.6 °C 1003.5 hPa SO 10 km/h 17.7 km/h 88% 0.5 mm
01:14 12.5 °C 10.7 °C 1003.5 hPa SO 10 km/h 19 km/h 88.8% 0.5 mm
01:19 12.4 °C 10.5 °C 1003.5 hPa SO 10.1 km/h 20.9 km/h 88.6% 1.1 mm
01:24 12.4 °C 10.4 °C 1003.3 hPa SO 10.3 km/h 27.8 km/h 87.7% 1.1 mm
01:29 12.4 °C 10.2 °C 1003.3 hPa OSO 11.9 km/h 27.4 km/h 86.4% 1.1 mm
01:34 12.4 °C 10.1 °C 1003.3 hPa OSO 14 km/h 28.2 km/h 86% 1.3 mm
01:39 12.3 °C 10.1 °C 1003.3 hPa OSO 15.1 km/h 28.6 km/h 86% 1.3 mm
01:44 12.3 °C 10 °C 1003.3 hPa OSO 16.4 km/h 29 km/h 86% 1.3 mm
01:49 12.2 °C 10 °C 1003.3 hPa SO 15.7 km/h 24.1 km/h 86% 1.3 mm
01:54 12.2 °C 9.9 °C 1003.1 hPa SO 14.8 km/h 27.4 km/h 86% 1.0 mm
01:59 12.2 °C 9.9 °C 1003.1 hPa SO 14.4 km/h 27.4 km/h 86% 1.0 mm
02:04 12.2 °C 9.8 °C 1003.1 hPa SO 14 km/h 25.9 km/h 85% 1.0 mm
02:09 12.2 °C 9.8 °C 1002.9 hPa SO 13.9 km/h 25.7 km/h 85% 0.8 mm
02:14 12.2 °C 9.8 °C 1002.9 hPa SO 13.7 km/h 24.5 km/h 85% 0.8 mm
02:19 12.2 °C 9.6 °C 1002.9 hPa SO 13.8 km/h 24.5 km/h 84.2% 0.8 mm
02:24 12.2 °C 9.5 °C 1002.8 hPa SO 14 km/h 25.9 km/h 83.8% 0.2 mm
02:29 12.2 °C 9.4 °C 1002.8 hPa SO 14 km/h 27 km/h 83% 0.2 mm
02:34 12.3 °C 9.5 °C 1002.8 hPa SO 14 km/h 27.8 km/h 83% 0.2 mm
02:39 12.3 °C 9.5 °C 1002.6 hPa SO 14.4 km/h 25.7 km/h 83% 0.2 mm
02:44 12.3 °C 9.5 °C 1002.6 hPa SSO 14.8 km/h 25.6 km/h 83.3% 0.0 mm
02:49 12.3 °C 9.7 °C 1002.6 hPa SSO 13.6 km/h 25.7 km/h 84% 0.0 mm
02:54 12.3 °C 9.8 °C 1002.4 hPa SSO 11.9 km/h 19.3 km/h 84.8% 0.0 mm
02:59 12.3 °C 9.9 °C 1002.4 hPa SSO 11.1 km/h 18.5 km/h 85.4% 0.0 mm
03:04 12.2 °C 9.9 °C 1002.4 hPa SSO 10.3 km/h 19.3 km/h 86% 0.0 mm
03:09 12.1 °C 10 °C 1002.3 hPa Sur 10.3 km/h 17.2 km/h 87% 0.0 mm
03:14 12 °C 10 °C 1002.3 hPa Sur 10.3 km/h 20.4 km/h 87.4% 0.0 mm
03:19 11.9 °C 10 °C 1002.3 hPa SSO 11 km/h 20.9 km/h 88% 0.0 mm
03:24 11.9 °C 10 °C 1002.2 hPa SSO 11.9 km/h 22.5 km/h 88% 0.0 mm
03:29 11.9 °C 9.8 °C 1002.2 hPa SSO 12.4 km/h 26.2 km/h 87% 0.0 mm
03:34 11.9 °C 9.8 °C 1002.2 hPa SSO 13 km/h 25.7 km/h 87% 0.0 mm
03:39 12 °C 9.7 °C 1001.9 hPa SSO 13.8 km/h 24.5 km/h 86.1% 0.0 mm
03:44 12 °C 9.7 °C 1001.9 hPa SSO 14.8 km/h 24.1 km/h 86% 0.0 mm
03:49 12 °C 9.7 °C 1001.9 hPa SSO 13.5 km/h 23.3 km/h 86% 0.0 mm
03:54 12 °C 9.7 °C 1001.8 hPa SSO 11.9 km/h 22.5 km/h 86% 0.0 mm
03:59 12 °C 9.7 °C 1001.8 hPa SSO 12.5 km/h 22.5 km/h 86% 0.0 mm
04:04 12 °C 9.8 °C 1001.8 hPa SSO 13 km/h 22.5 km/h 86.5% 0.0 mm
04:09 12 °C 9.8 °C 1001.7 hPa SSO 12.7 km/h 24.1 km/h 86.2% 0.0 mm
04:14 12 °C 9.7 °C 1001.7 hPa SSO 12.2 km/h 24.1 km/h 86% 0.0 mm
04:19 12 °C 9.7 °C 1001.7 hPa SSO 11.8 km/h 20.9 km/h 86% 0.0 mm
04:24 12 °C 9.7 °C 1001.6 hPa SSO 11.1 km/h 20.9 km/h 86% 0.0 mm
04:29 12 °C 9.7 °C 1001.6 hPa SSO 11.1 km/h 20.9 km/h 86% 0.0 mm
04:34 12.1 °C 9.8 °C 1001.6 hPa SSO 11.1 km/h 19.3 km/h 86% 0.0 mm
04:39 12.1 °C 9.8 °C 1001.5 hPa SO 11.1 km/h 19.3 km/h 86% 0.0 mm
04:44 12.1 °C 9.8 °C 1001.5 hPa SSO 11.1 km/h 19.3 km/h 86% 0.0 mm
04:49 12.1 °C 9.8 °C 1001.5 hPa SSO 11.1 km/h 20.1 km/h 86% 0.0 mm
04:54 12.1 °C 9.8 °C 1001.4 hPa SSO 11.1 km/h 20.9 km/h 85.9% 0.0 mm
04:59 12.1 °C 9.7 °C 1001.4 hPa SO 11.5 km/h 19.3 km/h 85% 0.0 mm
05:04 12.2 °C 9.7 °C 1001.4 hPa SSO 11.9 km/h 19.3 km/h 85% 0.0 mm
05:09 12.2 °C 9.8 °C 1001.3 hPa SSO 10.8 km/h 19.3 km/h 85% 0.0 mm
05:14 12.2 °C 9.8 °C 1001.3 hPa SSO 9.5 km/h 17.2 km/h 85% 0.0 mm
05:19 12.2 °C 9.8 °C 1001.3 hPa SSO 9.8 km/h 18.5 km/h 85% 0.0 mm
05:24 12.1 °C 9.8 °C 1001.1 hPa SSO 10.3 km/h 19.8 km/h 85.7% 0.0 mm
05:29 12.1 °C 9.8 °C 1001.1 hPa SSO 10.3 km/h 20.9 km/h 86% 0.0 mm
05:34 12.1 °C 9.8 °C 1001.1 hPa SSO 10.3 km/h 18.5 km/h 86% 0.0 mm
05:39 12.1 °C 9.8 °C 1001.1 hPa SSO 10.6 km/h 19.3 km/h 86% 0.0 mm
05:44 12.1 °C 9.8 °C 1001.1 hPa SSO 11.1 km/h 16.1 km/h 86% 0.0 mm
05:49 12.1 °C 9.8 °C 1001.1 hPa SSO 10.8 km/h 17.2 km/h 86% 0.0 mm
05:54 12.2 °C 9.9 °C 1001.0 hPa SSO 10.3 km/h 18.5 km/h 86% 0.0 mm
05:59 12.2 °C 9.9 °C 1001.0 hPa SO 10.1 km/h 19.3 km/h 86% 0.0 mm
06:04 12.2 °C 10 °C 1001.0 hPa SO 10 km/h 14.5 km/h 86.5% 0.0 mm
06:09 12.1 °C 10 °C 1000.9 hPa SO 9.3 km/h 14.8 km/h 87% 0.0 mm
06:14 12.1 °C 10.1 °C 1000.9 hPa SO 8.4 km/h 14.8 km/h 87.7% 0.3 mm
06:19 12.1 °C 10.1 °C 1000.9 hPa SSO 8.4 km/h 14.8 km/h 88% 0.3 mm
06:24 12 °C 10.1 °C 1000.8 hPa SSO 8.4 km/h 14.8 km/h 88.1% 0.3 mm
06:29 12 °C 10.2 °C 1000.8 hPa SSO 8.5 km/h 16.7 km/h 89% 0.3 mm
06:34 11.9 °C 10.2 °C 1000.8 hPa SSO 8.7 km/h 16.1 km/h 89% 0.3 mm
06:39 11.9 °C 10.2 °C 1000.7 hPa Sur 9.4 km/h 16.7 km/h 89.1% 0.3 mm
06:44 11.9 °C 10.3 °C 1000.7 hPa Sur 10.3 km/h 16.4 km/h 90% 0.3 mm
06:49 11.8 °C 10.2 °C 1000.7 hPa SSO 10 km/h 16.1 km/h 90% 0.3 mm
06:54 11.7 °C 10.2 °C 1000.5 hPa SSO 9.5 km/h 18.5 km/h 90.3% 0.3 mm
06:59 11.7 °C 10.3 °C 1000.5 hPa SSO 10.3 km/h 19.3 km/h 91% 0.3 mm
07:04 11.7 °C 10.2 °C 1000.6 hPa SSO 11.1 km/h 20.9 km/h 91% 0.3 mm
07:09 11.7 °C 10.3 °C 1000.6 hPa SSO 11.6 km/h 20.9 km/h 91% 0.3 mm
07:14 11.7 °C 10.3 °C 1000.6 hPa SSO 12.2 km/h 20.9 km/h 90.9% 0.3 mm
07:19 11.7 °C 10.2 °C 1000.6 hPa SSO 12.6 km/h 22.2 km/h 90% 0.3 mm
07:24 11.8 °C 10.2 °C 1000.6 hPa SSO 13 km/h 22.5 km/h 89.6% 0.0 mm
07:29 11.9 °C 10.2 °C 1000.6 hPa SSO 14.1 km/h 24.1 km/h 89% 0.0 mm
07:34 11.9 °C 10.2 °C 1000.6 hPa SSO 15.6 km/h 24.1 km/h 89% 0.0 mm
07:39 12 °C 10.2 °C 1000.6 hPa SSO 14.8 km/h 24.1 km/h 88.9% 0.0 mm
07:44 12 °C 10.2 °C 1000.6 hPa SSO 13.7 km/h 24.1 km/h 88.4% 0.0 mm
07:49 12.1 °C 10.2 °C 1000.8 hPa SSO 13.4 km/h 22.5 km/h 88% 0.0 mm
07:54 12.1 °C 10.2 °C 1000.8 hPa SSO 13 km/h 22.5 km/h 88% 0.0 mm
07:59 12.2 °C 10.3 °C 1000.8 hPa SSO 12.5 km/h 19.3 km/h 88% 0.0 mm
08:04 12.2 °C 10.3 °C 1000.8 hPa SO 11.9 km/h 19.3 km/h 88% 0.0 mm
08:09 12.2 °C 10.3 °C 1000.8 hPa SSO 11.2 km/h 19.3 km/h 87.9% 0.0 mm
08:14 12.3 °C 10.2 °C 1000.8 hPa SO 10.3 km/h 18 km/h 87% 0.0 mm
08:19 12.3 °C 10.2 °C 1000.8 hPa SSO 10.3 km/h 17.7 km/h 87% 0.0 mm
08:24 12.3 °C 10.2 °C 1000.8 hPa SSO 10.3 km/h 16.4 km/h 87% 0.0 mm
08:29 12.4 °C 10.2 °C 1000.8 hPa SSO 10.2 km/h 16.7 km/h 86.7% 0.0 mm
08:34 12.4 °C 10.1 °C 1000.8 hPa SSO 10 km/h 18.5 km/h 86% 0.0 mm
08:39 12.4 °C 10.1 °C 1000.8 hPa SSO 9.8 km/h 19.3 km/h 86% 0.0 mm
08:44 12.5 °C 10.2 °C 1000.8 hPa SSO 9.5 km/h 20.1 km/h 86% 0.0 mm
08:49 12.5 °C 10.2 °C 1000.8 hPa SSO 9.8 km/h 20.9 km/h 86% 0.0 mm
08:54 12.6 °C 10.3 °C 1000.8 hPa SSO 10.3 km/h 16.7 km/h 86% 0.0 mm
08:59 12.6 °C 10.3 °C 1000.8 hPa SSO 10.1 km/h 16.1 km/h 86% 0.0 mm
09:04 12.7 °C 10.4 °C 1000.9 hPa SSO 10 km/h 17.2 km/h 86% 0.0 mm
09:09 12.7 °C 10.4 °C 1000.9 hPa SSO 10.1 km/h 17.7 km/h 86% 0.0 mm
09:14 12.7 °C 10.4 °C 1000.9 hPa SSO 10.3 km/h 14.5 km/h 86% 0.0 mm
09:19 12.7 °C 10.5 °C 1000.9 hPa SSO 9.6 km/h 16.7 km/h 86% 0.0 mm
09:24 12.7 °C 10.5 °C 1000.9 hPa SSO 8.7 km/h 16.1 km/h 86% 0.0 mm
09:29 12.8 °C 10.5 °C 1000.9 hPa SSO 9.1 km/h 14.8 km/h 86% 0.0 mm
09:34 12.8 °C 10.5 °C 1001.0 hPa SSO 9.5 km/h 14.5 km/h 86% 0.0 mm
09:39 12.8 °C 10.5 °C 1001.0 hPa SO 9 km/h 13 km/h 86% 0.0 mm
09:44 12.9 °C 10.6 °C 1001.0 hPa SO 8.4 km/h 16.7 km/h 86% 0.0 mm
09:49 12.9 °C 10.6 °C 1001.0 hPa SO 8 km/h 16.1 km/h 86% 0.0 mm
09:54 12.9 °C 10.5 °C 1000.9 hPa SO 7.6 km/h 14 km/h 85.2% 0.0 mm
09:59 13.1 °C 10.5 °C 1000.9 hPa SSO 7.6 km/h 14.8 km/h 84.2% 0.0 mm
10:04 13.1 °C 10.5 °C 1001.0 hPa SSO 7.6 km/h 14.5 km/h 84% 0.0 mm
10:09 13.2 °C 10.5 °C 1001.0 hPa SSO 7.3 km/h 13 km/h 83.7% 0.0 mm
10:14 13.2 °C 10.4 °C 1001.0 hPa SSO 6.9 km/h 14 km/h 83% 0.0 mm
10:19 13.2 °C 10.4 °C 1001.0 hPa Sur 7.5 km/h 14.8 km/h 83% 0.0 mm
10:24 13.2 °C 10.5 °C 1001.0 hPa Sur 8.4 km/h 14.5 km/h 83.8% 0.0 mm
10:29 13.2 °C 10.5 °C 1001.0 hPa Sur 8.8 km/h 17.2 km/h 83.5% 0.0 mm
10:34 13.2 °C 10.5 °C 1001.0 hPa SSO 9.5 km/h 17.7 km/h 83.8% 0.0 mm
10:39 13.2 °C 10.5 °C 1001.0 hPa SSO 9 km/h 14.5 km/h 83.4% 0.0 mm
10:44 13.3 °C 10.5 °C 1001.0 hPa SSO 8.4 km/h 14.5 km/h 83% 0.0 mm
10:49 13.3 °C 10.5 °C 1001.1 hPa SSO 8 km/h 11.3 km/h 83% 0.0 mm
10:54 13.3 °C 10.5 °C 1001.1 hPa SSO 7.6 km/h 11.3 km/h 83% 0.0 mm
10:59 13.4 °C 10.6 °C 1001.1 hPa Sur 6.7 km/h 11.3 km/h 83% 0.0 mm
11:04 13.4 °C 10.4 °C 1001.1 hPa SSO 5.8 km/h 11.3 km/h 82.2% 0.0 mm
11:09 13.5 °C 10.5 °C 1001.1 hPa Sur 5.8 km/h 9.7 km/h 82% 0.0 mm
11:14 13.6 °C 10.6 °C 1001.1 hPa Sur 5.8 km/h 9.7 km/h 81.7% 0.0 mm
11:19 13.7 °C 10.6 °C 1001.1 hPa SSE 5.4 km/h 10.3 km/h 82% 0.0 mm
11:24 13.7 °C 10.7 °C 1001.1 hPa Sur 5 km/h 11.3 km/h 82% 0.0 mm
11:29 13.7 °C 10.7 °C 1001.1 hPa SSO 5.6 km/h 11.3 km/h 82% 0.0 mm
11:34 13.8 °C 10.8 °C 1001.1 hPa SO 6.5 km/h 9.7 km/h 82% 0.0 mm
11:39 13.9 °C 10.9 °C 1001.1 hPa SSO 5.7 km/h 11.1 km/h 81.8% 0.0 mm
11:44 14.1 °C 10.9 °C 1001.1 hPa Sur 4.6 km/h 11.9 km/h 81% 0.0 mm
11:49 14.1 °C 10.8 °C 1001.1 hPa SSO 5.5 km/h 14.8 km/h 80.3% 0.0 mm
11:54 14.2 °C 10.7 °C 1001.0 hPa SO 6.9 km/h 14.8 km/h 79.3% 0.0 mm
11:59 14.4 °C 10.7 °C 1001.0 hPa Sur 7.3 km/h 14.5 km/h 78.6% 0.0 mm
12:04 14.6 °C 10.6 °C 1001.0 hPa SSO 7.6 km/h 12.9 km/h 77.2% 0.0 mm
12:09 14.7 °C 10.5 °C 1001.0 hPa OSO 7.1 km/h 11.3 km/h 76.1% 0.0 mm
12:14 14.8 °C 10.4 °C 1001.0 hPa OSO 6.5 km/h 17.2 km/h 75% 0.0 mm
12:19 15 °C 10.3 °C 1001.0 hPa Oeste 6.7 km/h 17.7 km/h 73.8% 0.0 mm
12:24 15.1 °C 10.3 °C 1001.0 hPa ONO 6.9 km/h 13 km/h 73.1% 0.0 mm
12:29 15.3 °C 10.3 °C 1001.0 hPa Oeste 6.9 km/h 13 km/h 72% 0.0 mm
12:34 15.5 °C 10.4 °C 1001.0 hPa Oeste 6.9 km/h 23.7 km/h 71.7% 0.0 mm
12:39 15.7 °C 10.2 °C 1000.8 hPa Oeste 8 km/h 24.1 km/h 69.7% 0.0 mm
12:44 15.9 °C 10 °C 1000.8 hPa Oeste 9.5 km/h 29.6 km/h 67.8% 0.0 mm
12:49 16.1 °C 10.1 °C 1000.8 hPa OSO 10.9 km/h 29 km/h 67.7% 0.0 mm
12:54 16.3 °C 10.2 °C 1000.8 hPa ONO 13 km/h 24.5 km/h 67.2% 0.0 mm
12:59 16.5 °C 10.2 °C 1000.8 hPa Oeste 12 km/h 24.1 km/h 66.5% 0.0 mm
13:04 16.6 °C 10.1 °C 1000.8 hPa Oeste 11.1 km/h 22.5 km/h 65.5% 0.0 mm
13:09 16.7 °C 10 °C 1000.7 hPa ONO 11.4 km/h 22.5 km/h 64.6% 0.0 mm
13:14 16.7 °C 9.8 °C 1000.7 hPa ONO 11.9 km/h 24.5 km/h 64% 0.0 mm
13:19 16.7 °C 9.8 °C 1000.7 hPa ONO 13.1 km/h 24.1 km/h 63.9% 0.0 mm
13:24 16.8 °C 10 °C 1000.6 hPa ONO 14.8 km/h 28.6 km/h 64.4% 0.0 mm
13:29 16.9 °C 10.1 °C 1000.6 hPa ONO 13.7 km/h 29 km/h 64.1% 0.0 mm
13:34 16.9 °C 10 °C 1000.6 hPa ONO 12.2 km/h 26.2 km/h 63.6% 0.0 mm
13:39 17 °C 10 °C 1000.4 hPa ONO 13.6 km/h 27 km/h 63.4% 0.0 mm
13:44 17.2 °C 10.1 °C 1000.4 hPa ONO 15.6 km/h 27.8 km/h 63% 0.0 mm
13:49 17.4 °C 10.2 °C 1000.4 hPa ONO 15.6 km/h 25.7 km/h 62.7% 0.0 mm
13:54 17.5 °C 10.1 °C 1000.2 hPa ONO 15.6 km/h 24.1 km/h 61.9% 0.0 mm
13:59 17.6 °C 10.2 °C 1000.2 hPa ONO 14.8 km/h 22.5 km/h 61.8% 0.0 mm
14:04 17.6 °C 10.1 °C 1000.2 hPa ONO 14 km/h 26.2 km/h 61.3% 0.0 mm
14:09 17.7 °C 10.1 °C 1000.1 hPa NO 13.9 km/h 25.7 km/h 61.5% 0.0 mm
14:14 17.7 °C 10.1 °C 1000.1 hPa ONO 13.7 km/h 22.5 km/h 61.3% 0.0 mm
14:19 17.7 °C 9.9 °C 1000.1 hPa ONO 13.7 km/h 22.5 km/h 60.1% 0.0 mm
14:24 17.7 °C 10 °C 1000.0 hPa ONO 13.7 km/h 22.2 km/h 60.5% 0.0 mm
14:29 17.8 °C 9.8 °C 1000.0 hPa ONO 12.9 km/h 22.5 km/h 59.3% 0.0 mm
14:34 17.8 °C 9.8 °C 1000.0 hPa ONO 11.9 km/h 22.5 km/h 59.3% 0.0 mm
14:39 18 °C 10 °C 999.7 hPa OSO 11.6 km/h 20.4 km/h 59.5% 0.0 mm
14:44 18.3 °C 10 °C 999.7 hPa OSO 11.1 km/h 20.9 km/h 58.7% 0.0 mm
14:49 18.6 °C 10.1 °C 999.7 hPa OSO 10.4 km/h 20.9 km/h 57.8% 0.0 mm
14:54 18.8 °C 10 °C 999.7 hPa OSO 9.5 km/h 19.3 km/h 56.8% 0.0 mm
14:59 18.8 °C 10 °C 999.7 hPa NO 9.7 km/h 19.3 km/h 56.7% 0.0 mm
15:04 18.7 °C 9.9 °C 999.7 hPa NO 10 km/h 17.7 km/h 56.7% 0.0 mm
15:09 18.6 °C 9.7 °C 999.5 hPa NO 9.8 km/h 16.1 km/h 56.1% 0.0 mm
15:14 18.5 °C 9.6 °C 999.5 hPa Oeste 9.5 km/h 16.7 km/h 56.3% 0.0 mm
15:19 18.5 °C 9.6 °C 999.6 hPa OSO 8.5 km/h 16.1 km/h 56.2% 0.0 mm
15:24 18.5 °C 9.4 °C 999.6 hPa OSO 6.9 km/h 16.7 km/h 55.5% 0.0 mm
15:29 18.6 °C 9.5 °C 999.6 hPa OSO 8.2 km/h 16.7 km/h 55.3% 0.0 mm
15:34 18.6 °C 9.5 °C 999.6 hPa OSO 10 km/h 16.4 km/h 55.5% 0.0 mm
15:39 18.7 °C 9.5 °C 999.4 hPa OSO 9.5 km/h 16.7 km/h 55.3% 0.0 mm
15:44 18.7 °C 9.7 °C 999.4 hPa OSO 8.7 km/h 14.8 km/h 55.8% 0.0 mm
15:49 18.7 °C 9.6 °C 999.4 hPa OSO 8.6 km/h 16.7 km/h 55.3% 0.0 mm
15:54 18.8 °C 9.8 °C 999.3 hPa OSO 8.4 km/h 16.1 km/h 55.8% 0.0 mm
15:59 18.9 °C 9.9 °C 999.3 hPa SO 8.4 km/h 15.6 km/h 55.7% 0.0 mm
16:04 19 °C 9.8 °C 999.3 hPa OSO 8.4 km/h 18.5 km/h 55% 0.0 mm
16:09 19 °C 9.8 °C 999.1 hPa OSO 9.1 km/h 19.3 km/h 55% 0.0 mm
16:14 19.1 °C 9.9 °C 999.1 hPa OSO 10 km/h 16.7 km/h 55.3% 0.0 mm
16:19 19.1 °C 9.6 °C 999.1 hPa OSO 9.4 km/h 16.1 km/h 54.2% 0.0 mm
16:24 19.1 °C 9.7 °C 999.0 hPa OSO 8.7 km/h 14.8 km/h 54.6% 0.0 mm
16:29 19.1 °C 9.7 °C 999.0 hPa Oeste 8.7 km/h 14.5 km/h 54.5% 0.0 mm
16:34 19.2 °C 9.8 °C 999.0 hPa Oeste 8.7 km/h 20.4 km/h 54.5% 0.0 mm
16:39 19.2 °C 9.7 °C 999.0 hPa Oeste 9 km/h 20.9 km/h 54% 0.0 mm
16:44 19.2 °C 9.5 °C 999.0 hPa ONO 9.5 km/h 25.9 km/h 53.4% 0.0 mm
16:49 19.1 °C 9.1 °C 999.0 hPa Oeste 10.5 km/h 25.9 km/h 52.4% 0.0 mm
16:54 19.1 °C 9.1 °C 999.0 hPa Oeste 11.9 km/h 25.9 km/h 52.4% 0.0 mm
16:59 19 °C 8.9 °C 999.0 hPa Oeste 12.5 km/h 25.7 km/h 52% 0.0 mm
17:04 19.1 °C 9 °C 999.0 hPa OSO 13 km/h 24.1 km/h 52% 0.0 mm
17:09 19.2 °C 9.1 °C 998.9 hPa Oeste 12.7 km/h 24.1 km/h 52.2% 0.0 mm
17:14 19.3 °C 9.1 °C 998.9 hPa Oeste 12.2 km/h 31.7 km/h 51.8% 0.0 mm
17:19 19.4 °C 9.2 °C 999.0 hPa Oeste 13 km/h 32.2 km/h 52% 0.0 mm
17:24 19.4 °C 9.2 °C 999.0 hPa Oeste 14 km/h 25.9 km/h 51.7% 0.0 mm
17:29 19.3 °C 9.1 °C 999.0 hPa Oeste 14 km/h 29.8 km/h 51.7% 0.0 mm
17:34 19.3 °C 9.2 °C 999.0 hPa ONO 14 km/h 30.6 km/h 52.2% 0.0 mm
17:39 19.3 °C 9.4 °C 999.0 hPa Oeste 14 km/h 26.2 km/h 52.8% 0.0 mm
17:44 19.2 °C 9.4 °C 999.0 hPa Oeste 14 km/h 25.9 km/h 53% 0.0 mm
17:49 19.2 °C 9.4 °C 999.1 hPa Oeste 13.6 km/h 24.1 km/h 53.3% 0.0 mm
17:54 19.1 °C 9.4 °C 999.1 hPa ONO 13 km/h 24.5 km/h 53.6% 0.0 mm
17:59 18.9 °C 9.2 °C 999.1 hPa Oeste 13 km/h 24.1 km/h 53.2% 0.0 mm
18:04 18.8 °C 9.3 °C 999.2 hPa ONO 13 km/h 22.5 km/h 54% 0.0 mm
18:09 18.8 °C 9.2 °C 999.2 hPa ONO 12.2 km/h 20.9 km/h 53.9% 0.0 mm
18:14 18.8 °C 9.2 °C 999.2 hPa ONO 11.1 km/h 20.9 km/h 53.8% 0.0 mm
18:19 18.8 °C 9.4 °C 999.2 hPa Oeste 10.5 km/h 14.8 km/h 54.4% 0.0 mm
18:24 18.8 °C 9.4 °C 999.1 hPa OSO 9.5 km/h 14.5 km/h 54.3% 0.0 mm
18:29 18.8 °C 9.3 °C 999.1 hPa Oeste 8.3 km/h 14.8 km/h 54% 0.0 mm
18:34 18.8 °C 9.2 °C 999.1 hPa Oeste 6.5 km/h 14.5 km/h 53.7% 0.0 mm
18:39 18.8 °C 9.2 °C 999.1 hPa Oeste 6.2 km/h 13 km/h 53.8% 0.0 mm
18:44 18.8 °C 9.2 °C 999.1 hPa ONO 5.8 km/h 13 km/h 53.9% 0.0 mm
18:49 18.7 °C 9.2 °C 999.1 hPa ONO 6.2 km/h 12.9 km/h 54% 0.0 mm
18:54 18.7 °C 9.2 °C 999.1 hPa ONO 6.9 km/h 11.1 km/h 54.1% 0.0 mm
18:59 18.7 °C 9.3 °C 999.1 hPa ONO 6.4 km/h 11.3 km/h 54.4% 0.0 mm
19:04 18.7 °C 9.3 °C 999.1 hPa Oeste 5.8 km/h 11.3 km/h 54.3% 0.0 mm
19:09 18.7 °C 9.4 °C 998.9 hPa Oeste 5.3 km/h 11.3 km/h 54.9% 0.0 mm
19:14 18.7 °C 9.4 °C 998.9 hPa SO 4.7 km/h 9.7 km/h 54.9% 0.0 mm
19:19 18.7 °C 9.7 °C 998.9 hPa SSE 4.7 km/h 8 km/h 55.9% 0.0 mm
19:24 18.7 °C 10.1 °C 998.9 hPa SE 4.7 km/h 8.4 km/h 57.6% 0.0 mm
19:29 18.6 °C 10.4 °C 998.9 hPa SE 5.1 km/h 9.3 km/h 59.1% 0.0 mm
19:34 18.4 °C 10.5 °C 998.9 hPa SE 5.8 km/h 9.7 km/h 60.1% 0.0 mm
19:39 18.3 °C 10.6 °C 998.9 hPa SE 5.4 km/h 8 km/h 60.6% 0.0 mm
19:44 18.2 °C 10.5 °C 998.9 hPa SE 5 km/h 10 km/h 60.8% 0.0 mm
19:49 18.2 °C 10.6 °C 998.9 hPa SE 5.3 km/h 9.7 km/h 61% 0.0 mm
19:54 18.2 °C 10.5 °C 998.9 hPa ESE 5.8 km/h 9.7 km/h 61% 0.0 mm
19:59 18.1 °C 10.6 °C 998.9 hPa SE 5.2 km/h 9.7 km/h 61.7% 0.0 mm
20:04 18.1 °C 10.5 °C 999.0 hPa SSE 4.6 km/h 9.7 km/h 61.4% 0.0 mm
20:09 18.1 °C 10.4 °C 999.0 hPa SE 4.8 km/h 9.7 km/h 61% 0.0 mm
20:14 18.1 °C 10.4 °C 999.0 hPa Sur 5 km/h 9.7 km/h 61% 0.0 mm
20:19 18.1 °C 10.4 °C 999.2 hPa SSE 5.3 km/h 9.5 km/h 61% 0.0 mm
20:24 18.1 °C 10.5 °C 999.2 hPa SSE 5.8 km/h 9.7 km/h 61.2% 0.0 mm
20:29 18 °C 10.6 °C 999.2 hPa Sur 5.8 km/h 9.7 km/h 61.8% 0.0 mm
20:34 18 °C 10.6 °C 999.2 hPa Sur 5.8 km/h 9.7 km/h 61.8% 0.0 mm
20:39 17.9 °C 10.6 °C 999.2 hPa Sur 6 km/h 15.6 km/h 62.4% 0.0 mm
20:44 17.9 °C 10.8 °C 999.2 hPa SSO 6.5 km/h 16.1 km/h 63.3% 0.0 mm
20:49 17.8 °C 11 °C 999.6 hPa SSO 6.7 km/h 11.3 km/h 64.3% 0.0 mm
20:54 17.7 °C 11.1 °C 999.6 hPa Sur 6.9 km/h 11.3 km/h 65.1% 0.0 mm
20:59 17.7 °C 11.3 °C 999.6 hPa Sur 6.4 km/h 9.7 km/h 66% 0.0 mm
21:04 17.7 °C 11.2 °C 999.6 hPa Sur 5.8 km/h 8 km/h 66.1% 0.0 mm
21:09 17.6 °C 11.4 °C 999.5 hPa Sur 5.5 km/h 8.4 km/h 67% 0.0 mm
21:14 17.6 °C 11.4 °C 999.5 hPa SSO 5 km/h 10 km/h 67.3% 0.0 mm
21:19 17.5 °C 11.6 °C 999.6 hPa OSO 4.5 km/h 9.7 km/h 68.6% 0.0 mm
21:24 17.4 °C 11.7 °C 999.6 hPa SO 3.9 km/h 9.7 km/h 69.1% 0.0 mm
21:29 17.3 °C 11.8 °C 999.6 hPa SO 4.6 km/h 13 km/h 70% 0.0 mm
21:34 17.3 °C 11.6 °C 999.7 hPa SO 5.8 km/h 19 km/h 69.6% 0.0 mm
21:39 17.2 °C 11.3 °C 999.7 hPa SSO 7.3 km/h 20.1 km/h 68.5% 0.0 mm
21:44 17.2 °C 11.2 °C 999.7 hPa SSO 9.5 km/h 20.9 km/h 68% 0.0 mm
21:49 17.1 °C 11.2 °C 999.9 hPa SSO 9.7 km/h 20.9 km/h 68% 0.0 mm
21:54 17 °C 11.1 °C 999.9 hPa SSO 10 km/h 18.5 km/h 67.9% 0.0 mm
21:59 17.1 °C 10.9 °C 999.9 hPa SSO 10.5 km/h 19.3 km/h 67% 0.0 mm
22:04 17.1 °C 10.9 °C 999.9 hPa SSO 11.1 km/h 19.3 km/h 67% 0.0 mm
22:09 17 °C 11 °C 999.8 hPa Sur 10.5 km/h 16.7 km/h 67.8% 0.0 mm
22:14 16.9 °C 11 °C 999.8 hPa SSE 9.5 km/h 16.1 km/h 68.3% 0.0 mm
22:19 16.8 °C 11.1 °C 999.8 hPa Sur 8.8 km/h 16.1 km/h 69% 0.0 mm
22:24 16.8 °C 11.2 °C 999.8 hPa ESE 7.6 km/h 11.3 km/h 69.7% 0.0 mm
22:29 16.7 °C 11.7 °C 999.8 hPa ESE 6.5 km/h 8.4 km/h 72.2% 0.0 mm
22:34 16.6 °C 11.7 °C 999.8 hPa ESE 5 km/h 8 km/h 73% 0.0 mm
22:39 16.5 °C 11.8 °C 999.8 hPa ESE 3 km/h 4.7 km/h 73.7% 0.0 mm
22:44 16.4 °C 11.9 °C 999.8 hPa Calm   5 km/h 74.6% 0.0 mm
22:49 16.3 °C 11.9 °C 999.8 hPa Calm   4.8 km/h 75.1% 0.0 mm
22:54 16.2 °C 12 °C 999.8 hPa Calm   7.4 km/h 76% 0.0 mm
22:59 16.1 °C 11.9 °C 999.8 hPa NNO 1.1 km/h 8 km/h 76% 0.0 mm
23:04 16 °C 11.9 °C 999.8 hPa NNO 2.2 km/h 3.9 km/h 77% 0.0 mm
23:09 15.9 °C 11.7 °C 999.8 hPa NNO 2.2 km/h 7.4 km/h 76.1% 0.0 mm
23:14 15.9 °C 11.6 °C 999.8 hPa NNO 2.2 km/h 8 km/h 75.5% 0.0 mm
23:19 15.8 °C 11.4 °C 999.9 hPa NNO 2.5 km/h 4.8 km/h 75% 0.0 mm
23:24 15.8 °C 11.3 °C 999.9 hPa NNO 2.9 km/h 4.7 km/h 74.7% 0.0 mm
23:29 15.8 °C 11.4 °C 999.9 hPa NNO 1.7 km/h 4.8 km/h 75% 0.0 mm
23:34 15.8 °C 11.5 °C 999.9 hPa Calm     75.7% 0.0 mm
23:39 15.8 °C 11.5 °C 999.9 hPa Calm   3.9 km/h 76% 0.0 mm
23:44 15.7 °C 11.5 °C 999.9 hPa Calm   8.4 km/h 76.1% 0.0 mm
23:49 15.7 °C 11.5 °C 999.9 hPa Sur 1.6 km/h 11.1 km/h 76% 0.0 mm
23:54 15.7 °C 11.4 °C 999.8 hPa Sur 3.9 km/h 11.9 km/h 75.6% 0.0 mm
23:59 15.6 °C 11.4 °C 999.8 hPa Sur 5.4 km/h 11.3 km/h 76% 0.0 mm
Murcia-Puente Tocinos, España
Compliments of Weather Underground - 3 mb

La estación de MeteoMurcia.com, publica sus datos en los siguientes proyectos:

Weather Underground PWS IMURCIAP2 Meteoclimatic www.awekas.at

W3Counter
Web Analytics